sensor_id;sensor_type;location;lat;lon;timestamp;temperature;humidity
72320;SHT30;60269;52.502;16.732;2023-04-01T00:01:38;8.10;99.14
72320;SHT30;60269;52.502;16.732;2023-04-01T00:05:10;8.05;99.11
72320;SHT30;60269;52.502;16.732;2023-04-01T00:08:43;8.02;99.22
72320;SHT30;60269;52.502;16.732;2023-04-01T00:12:16;8.01;99.18
72320;SHT30;60269;52.502;16.732;2023-04-01T00:15:48;8.02;99.32
72320;SHT30;60269;52.502;16.732;2023-04-01T00:19:21;8.02;99.31
72320;SHT30;60269;52.502;16.732;2023-04-01T00:22:53;8.01;99.22
72320;SHT30;60269;52.502;16.732;2023-04-01T00:26:25;8.10;99.16
72320;SHT30;60269;52.502;16.732;2023-04-01T00:29:58;8.08;99.25
72320;SHT30;60269;52.502;16.732;2023-04-01T00:33:30;8.14;99.18
72320;SHT30;60269;52.502;16.732;2023-04-01T00:37:03;8.14;99.11
72320;SHT30;60269;52.502;16.732;2023-04-01T00:40:38;8.15;99.26
72320;SHT30;60269;52.502;16.732;2023-04-01T00:44:20;8.12;99.31
72320;SHT30;60269;52.502;16.732;2023-04-01T00:47:54;8.14;99.28
72320;SHT30;60269;52.502;16.732;2023-04-01T00:51:28;8.12;99.41
72320;SHT30;60269;52.502;16.732;2023-04-01T00:55:02;8.15;99.38
72320;SHT30;60269;52.502;16.732;2023-04-01T00:58:39;8.10;99.57
72320;SHT30;60269;52.502;16.732;2023-04-01T01:02:13;8.07;99.69
72320;SHT30;60269;52.502;16.732;2023-04-01T01:17:04;8.22;99.35
72320;SHT30;60269;52.502;16.732;2023-04-01T01:24:30;8.14;99.35
72320;SHT30;60269;52.502;16.732;2023-04-01T01:35:46;8.17;99.35
72320;SHT30;60269;52.502;16.732;2023-04-01T01:39:20;8.18;99.44
72320;SHT30;60269;52.502;16.732;2023-04-01T01:42:55;8.22;99.41
72320;SHT30;60269;52.502;16.732;2023-04-01T01:46:30;8.21;99.43
72320;SHT30;60269;52.502;16.732;2023-04-01T01:50:03;8.24;99.33
72320;SHT30;60269;52.502;16.732;2023-04-01T01:53:36;8.20;99.40
72320;SHT30;60269;52.502;16.732;2023-04-01T01:57:09;8.25;99.34
72320;SHT30;60269;52.502;16.732;2023-04-01T02:00:45;8.24;99.24
72320;SHT30;60269;52.502;16.732;2023-04-01T02:04:18;8.20;99.24
72320;SHT30;60269;52.502;16.732;2023-04-01T02:08:07;8.17;99.39
72320;SHT30;60269;52.502;16.732;2023-04-01T02:11:56;8.05;99.52
72320;SHT30;60269;52.502;16.732;2023-04-01T02:15:31;8.00;99.68
72320;SHT30;60269;52.502;16.732;2023-04-01T02:19:05;8.00;99.57
72320;SHT30;60269;52.502;16.732;2023-04-01T02:22:46;8.05;99.29
72320;SHT30;60269;52.502;16.732;2023-04-01T02:26:20;8.00;99.48
72320;SHT30;60269;52.502;16.732;2023-04-01T02:29:53;8.11;99.41
72320;SHT30;60269;52.502;16.732;2023-04-01T02:33:24;8.07;99.48
72320;SHT30;60269;52.502;16.732;2023-04-01T02:36:57;8.07;99.43
72320;SHT30;60269;52.502;16.732;2023-04-01T02:40:29;8.17;99.48
72320;SHT30;60269;52.502;16.732;2023-04-01T02:44:01;8.08;99.33
72320;SHT30;60269;52.502;16.732;2023-04-01T02:47:33;8.12;99.28
72320;SHT30;60269;52.502;16.732;2023-04-01T02:51:06;8.17;99.22
72320;SHT30;60269;52.502;16.732;2023-04-01T02:54:38;8.02;99.29
72320;SHT30;60269;52.502;16.732;2023-04-01T02:58:10;8.08;99.36
72320;SHT30;60269;52.502;16.732;2023-04-01T03:01:42;8.17;99.29
72320;SHT30;60269;52.502;16.732;2023-04-01T03:05:15;8.02;99.31
72320;SHT30;60269;52.502;16.732;2023-04-01T03:08:47;8.05;99.29
72320;SHT30;60269;52.502;16.732;2023-04-01T03:12:19;8.07;99.29
72320;SHT30;60269;52.502;16.732;2023-04-01T03:15:51;8.07;99.29
72320;SHT30;60269;52.502;16.732;2023-04-01T03:19:23;8.05;99.35
72320;SHT30;60269;52.502;16.732;2023-04-01T03:22:55;8.18;99.16
72320;SHT30;60269;52.502;16.732;2023-04-01T03:26:28;8.18;99.08
72320;SHT30;60269;52.502;16.732;2023-04-01T03:30:00;8.20;99.13
72320;SHT30;60269;52.502;16.732;2023-04-01T03:33:32;8.14;99.12
72320;SHT30;60269;52.502;16.732;2023-04-01T03:37:04;8.14;99.22
72320;SHT30;60269;52.502;16.732;2023-04-01T03:40:42;8.24;99.09
72320;SHT30;60269;52.502;16.732;2023-04-01T03:44:14;8.32;99.00
72320;SHT30;60269;52.502;16.732;2023-04-01T03:47:46;8.27;98.87
72320;SHT30;60269;52.502;16.732;2023-04-01T03:51:18;8.17;98.88
72320;SHT30;60269;52.502;16.732;2023-04-01T03:54:51;8.15;98.97
72320;SHT30;60269;52.502;16.732;2023-04-01T03:58:23;8.10;99.05
72320;SHT30;60269;52.502;16.732;2023-04-01T04:01:55;7.98;99.18
72320;SHT30;60269;52.502;16.732;2023-04-01T04:05:27;7.95;99.30
72320;SHT30;60269;52.502;16.732;2023-04-01T04:09:00;7.90;99.27
72320;SHT30;60269;52.502;16.732;2023-04-01T04:12:32;7.90;99.43
72320;SHT30;60269;52.502;16.732;2023-04-01T04:16:08;7.84;99.60
72320;SHT30;60269;52.502;16.732;2023-04-01T04:19:42;7.90;99.51
72320;SHT30;60269;52.502;16.732;2023-04-01T04:23:14;8.01;99.59
72320;SHT30;60269;52.502;16.732;2023-04-01T04:26:46;8.02;99.54
72320;SHT30;60269;52.502;16.732;2023-04-01T04:30:19;8.08;99.47
72320;SHT30;60269;52.502;16.732;2023-04-01T04:33:51;8.05;99.52
72320;SHT30;60269;52.502;16.732;2023-04-01T04:37:23;8.17;99.45
72320;SHT30;60269;52.502;16.732;2023-04-01T04:40:55;8.14;99.39
72320;SHT30;60269;52.502;16.732;2023-04-01T04:44:28;8.15;99.36
72320;SHT30;60269;52.502;16.732;2023-04-01T04:48:00;8.17;99.30
72320;SHT30;60269;52.502;16.732;2023-04-01T04:51:32;8.07;99.47
72320;SHT30;60269;52.502;16.732;2023-04-01T04:55:07;8.18;99.36
72320;SHT30;60269;52.502;16.732;2023-04-01T04:58:39;8.24;99.28
72320;SHT30;60269;52.502;16.732;2023-04-01T05:02:11;8.27;99.20
72320;SHT30;60269;52.502;16.732;2023-04-01T05:05:51;8.27;99.09
72320;SHT30;60269;52.502;16.732;2023-04-01T05:09:24;8.28;99.04
72320;SHT30;60269;52.502;16.732;2023-04-01T05:12:57;8.28;99.11
72320;SHT30;60269;52.502;16.732;2023-04-01T05:16:29;8.18;99.24
72320;SHT30;60269;52.502;16.732;2023-04-01T05:20:04;8.20;99.30
72320;SHT30;60269;52.502;16.732;2023-04-01T05:23:37;8.22;99.26
72320;SHT30;60269;52.502;16.732;2023-04-01T05:27:09;8.31;99.36
72320;SHT30;60269;52.502;16.732;2023-04-01T05:30:42;8.24;99.38
72320;SHT30;60269;52.502;16.732;2023-04-01T05:34:15;8.29;99.45
72320;SHT30;60269;52.502;16.732;2023-04-01T05:37:47;8.28;99.45
72320;SHT30;60269;52.502;16.732;2023-04-01T05:41:21;8.27;99.48
72320;SHT30;60269;52.502;16.732;2023-04-01T05:44:53;8.27;99.59
72320;SHT30;60269;52.502;16.732;2023-04-01T05:48:27;8.24;99.59
72320;SHT30;60269;52.502;16.732;2023-04-01T05:51:59;8.29;99.59
72320;SHT30;60269;52.502;16.732;2023-04-01T05:55:31;8.42;99.41
72320;SHT30;60269;52.502;16.732;2023-04-01T05:59:03;8.46;99.37
72320;SHT30;60269;52.502;16.732;2023-04-01T06:02:36;8.52;99.27
72320;SHT30;60269;52.502;16.732;2023-04-01T06:06:35;8.48;99.26
72320;SHT30;60269;52.502;16.732;2023-04-01T06:10:18;8.52;99.20
72320;SHT30;60269;52.502;16.732;2023-04-01T06:18:08;8.63;99.02
72320;SHT30;60269;52.502;16.732;2023-04-01T06:36:42;8.89;98.81
72320;SHT30;60269;52.502;16.732;2023-04-01T06:45:26;9.10;98.45
72320;SHT30;60269;52.502;16.732;2023-04-01T06:49:21;9.14;98.35
72320;SHT30;60269;52.502;16.732;2023-04-01T06:53:21;9.16;98.32
72320;SHT30;60269;52.502;16.732;2023-04-01T06:57:02;9.27;98.28
72320;SHT30;60269;52.502;16.732;2023-04-01T07:00:43;9.26;98.13
72320;SHT30;60269;52.502;16.732;2023-04-01T07:07:57;9.28;98.01
72320;SHT30;60269;52.502;16.732;2023-04-01T07:11:33;9.32;97.90
72320;SHT30;60269;52.502;16.732;2023-04-01T07:15:22;9.38;97.80
72320;SHT30;60269;52.502;16.732;2023-04-01T07:19:06;9.41;97.81
72320;SHT30;60269;52.502;16.732;2023-04-01T07:22:43;9.44;97.77
72320;SHT30;60269;52.502;16.732;2023-04-01T07:26:20;9.48;97.54
72320;SHT30;60269;52.502;16.732;2023-04-01T07:29:56;9.49;97.71
72320;SHT30;60269;52.502;16.732;2023-04-01T07:38:03;9.56;97.42
72320;SHT30;60269;52.502;16.732;2023-04-01T07:42:02;9.61;97.46
72320;SHT30;60269;52.502;16.732;2023-04-01T07:57:56;10.06;96.55
72320;SHT30;60269;52.502;16.732;2023-04-01T08:05:28;10.29;95.96
72320;SHT30;60269;52.502;16.732;2023-04-01T08:17:46;10.16;95.77
72320;SHT30;60269;52.502;16.732;2023-04-01T08:21:24;9.93;95.74
72320;SHT30;60269;52.502;16.732;2023-04-01T08:24:59;9.85;95.75
72320;SHT30;60269;52.502;16.732;2023-04-01T08:32:12;9.78;96.03
72320;SHT30;60269;52.502;16.732;2023-04-01T08:35:55;9.92;95.38
72320;SHT30;60269;52.502;16.732;2023-04-01T08:39:32;9.97;94.70
72320;SHT30;60269;52.502;16.732;2023-04-01T08:47:24;10.48;92.51
72320;SHT30;60269;52.502;16.732;2023-04-01T08:55:01;10.67;91.58
72320;SHT30;60269;52.502;16.732;2023-04-01T08:59:40;10.38;91.85
72320;SHT30;60269;52.502;16.732;2023-04-01T09:03:10;10.40;92.18
72320;SHT30;60269;52.502;16.732;2023-04-01T09:07:17;10.37;91.95
72320;SHT30;60269;52.502;16.732;2023-04-01T09:18:38;10.82;91.07
72320;SHT30;60269;52.502;16.732;2023-04-01T09:22:37;10.61;91.01
72320;SHT30;60269;52.502;16.732;2023-04-01T09:26:34;10.32;91.95
72320;SHT30;60269;52.502;16.732;2023-04-01T10:06:08;9.78;93.32
72320;SHT30;60269;52.502;16.732;2023-04-01T10:57:22;9.39;93.76
72320;SHT30;60269;52.502;16.732;2023-04-01T11:01:33;9.31;94.35
72320;SHT30;60269;52.502;16.732;2023-04-01T11:13:30;9.28;93.90
72320;SHT30;60269;52.502;16.732;2023-04-01T11:32:43;8.91;95.42
72320;SHT30;60269;52.502;16.732;2023-04-01T11:40:29;8.68;95.71
72320;SHT30;60269;52.502;16.732;2023-04-01T11:44:22;8.69;95.49
72320;SHT30;60269;52.502;16.732;2023-04-01T12:00:29;8.69;93.66
72320;SHT30;60269;52.502;16.732;2023-04-01T12:04:17;8.77;93.48
72320;SHT30;60269;52.502;16.732;2023-04-01T12:11:51;9.00;92.14
72320;SHT30;60269;52.502;16.732;2023-04-01T12:15:52;9.32;91.03
72320;SHT30;60269;52.502;16.732;2023-04-01T12:19:54;9.41;89.42
72320;SHT30;60269;52.502;16.732;2023-04-01T12:23:48;9.58;88.93
72320;SHT30;60269;52.502;16.732;2023-04-01T12:27:37;9.93;87.81
72320;SHT30;60269;52.502;16.732;2023-04-01T12:31:21;9.85;87.32
72320;SHT30;60269;52.502;16.732;2023-04-01T12:40:14;9.42;88.29
72320;SHT30;60269;52.502;16.732;2023-04-01T12:47:27;9.39;88.55
72320;SHT30;60269;52.502;16.732;2023-04-01T13:10:48;9.26;87.36
72320;SHT30;60269;52.502;16.732;2023-04-01T13:18:28;9.44;87.31
72320;SHT30;60269;52.502;16.732;2023-04-01T13:26:03;10.03;84.03
72320;SHT30;60269;52.502;16.732;2023-04-01T13:33:52;11.39;79.44
72320;SHT30;60269;52.502;16.732;2023-04-01T13:52:36;11.08;78.05
72320;SHT30;60269;52.502;16.732;2023-04-01T14:07:31;10.09;80.99
72320;SHT30;60269;52.502;16.732;2023-04-01T14:22:42;9.79;82.03
72320;SHT30;60269;52.502;16.732;2023-04-01T14:30:38;9.41;82.63
72320;SHT30;60269;52.502;16.732;2023-04-01T14:38:47;9.28;84.62
72320;SHT30;60269;52.502;16.732;2023-04-01T14:54:13;9.42;82.92
72320;SHT30;60269;52.502;16.732;2023-04-01T15:13:14;8.75;85.78
72320;SHT30;60269;52.502;16.732;2023-04-01T15:21:08;8.55;86.79
72320;SHT30;60269;52.502;16.732;2023-04-01T15:32:26;8.45;86.63
72320;SHT30;60269;52.502;16.732;2023-04-01T15:36:36;8.42;86.65
72320;SHT30;60269;52.502;16.732;2023-04-01T15:40:32;8.37;86.43
72320;SHT30;60269;52.502;16.732;2023-04-01T15:48:38;8.37;87.24
72320;SHT30;60269;52.502;16.732;2023-04-01T15:52:21;8.27;87.46
72320;SHT30;60269;52.502;16.732;2023-04-01T15:59:56;8.10;87.82
72320;SHT30;60269;52.502;16.732;2023-04-01T16:12:02;7.77;88.52
72320;SHT30;60269;52.502;16.732;2023-04-01T16:19:41;7.71;88.99
72320;SHT30;60269;52.502;16.732;2023-04-01T16:31:06;7.39;88.86
72320;SHT30;60269;52.502;16.732;2023-04-01T16:34:47;7.35;89.29
72320;SHT30;60269;52.502;16.732;2023-04-01T16:42:16;7.18;89.61
72320;SHT30;60269;52.502;16.732;2023-04-01T16:46:07;7.05;89.69
72320;SHT30;60269;52.502;16.732;2023-04-01T16:50:19;6.93;90.02
72320;SHT30;60269;52.502;16.732;2023-04-01T16:54:11;6.77;89.80
72320;SHT30;60269;52.502;16.732;2023-04-01T16:58:14;6.70;90.01
72320;SHT30;60269;52.502;16.732;2023-04-01T17:02:03;6.60;90.18
72320;SHT30;60269;52.502;16.732;2023-04-01T17:05:42;6.52;90.06
72320;SHT30;60269;52.502;16.732;2023-04-01T17:09:25;6.49;90.39
72320;SHT30;60269;52.502;16.732;2023-04-01T17:17:29;6.50;90.03
72320;SHT30;60269;52.502;16.732;2023-04-01T17:21:47;6.43;90.19
72320;SHT30;60269;52.502;16.732;2023-04-01T17:25:34;6.44;90.18
72320;SHT30;60269;52.502;16.732;2023-04-01T17:37:38;6.29;89.95
72320;SHT30;60269;52.502;16.732;2023-04-01T17:41:31;6.22;90.25
72320;SHT30;60269;52.502;16.732;2023-04-01T17:45:11;6.23;90.37
72320;SHT30;60269;52.502;16.732;2023-04-01T17:56:45;6.02;89.96
72320;SHT30;60269;52.502;16.732;2023-04-01T18:00:03;5.99;90.05
72320;SHT30;60269;52.502;16.732;2023-04-01T18:19:03;5.75;89.81
72320;SHT30;60269;52.502;16.732;2023-04-01T18:22:48;5.79;89.91
72320;SHT30;60269;52.502;16.732;2023-04-01T18:26:31;5.75;89.85
72320;SHT30;60269;52.502;16.732;2023-04-01T18:34:36;5.64;88.81
72320;SHT30;60269;52.502;16.732;2023-04-01T18:38:45;5.53;88.56
72320;SHT30;60269;52.502;16.732;2023-04-01T18:42:50;5.48;88.21
72320;SHT30;60269;52.502;16.732;2023-04-01T18:46:54;5.40;87.89
72320;SHT30;60269;52.502;16.732;2023-04-01T18:50:44;5.33;87.86
72320;SHT30;60269;52.502;16.732;2023-04-01T18:58:52;5.29;89.13
72320;SHT30;60269;52.502;16.732;2023-04-01T19:02:41;5.25;89.60
72320;SHT30;60269;52.502;16.732;2023-04-01T19:06:28;5.13;90.32
72320;SHT30;60269;52.502;16.732;2023-04-01T19:10:16;4.99;90.86
72320;SHT30;60269;52.502;16.732;2023-04-01T19:17:51;4.79;91.88
72320;SHT30;60269;52.502;16.732;2023-04-01T19:25:51;4.72;92.60
72320;SHT30;60269;52.502;16.732;2023-04-01T19:38:20;4.61;91.69
72320;SHT30;60269;52.502;16.732;2023-04-01T19:46:58;4.56;91.78
72320;SHT30;60269;52.502;16.732;2023-04-01T19:50:42;4.58;91.22
72320;SHT30;60269;52.502;16.732;2023-04-01T20:06:46;4.46;89.85
72320;SHT30;60269;52.502;16.732;2023-04-01T20:10:41;4.48;89.40
72320;SHT30;60269;52.502;16.732;2023-04-01T20:14:42;4.50;89.17
72320;SHT30;60269;52.502;16.732;2023-04-01T20:19:06;4.48;88.81
72320;SHT30;60269;52.502;16.732;2023-04-01T20:26:32;4.51;88.63
72320;SHT30;60269;52.502;16.732;2023-04-01T20:50:45;4.48;88.59
72320;SHT30;60269;52.502;16.732;2023-04-01T20:58:27;4.41;88.91
72320;SHT30;60269;52.502;16.732;2023-04-01T21:02:12;4.46;89.08
72320;SHT30;60269;52.502;16.732;2023-04-01T21:10:20;4.40;88.92
72320;SHT30;60269;52.502;16.732;2023-04-01T21:22:13;4.29;89.08
72320;SHT30;60269;52.502;16.732;2023-04-01T21:37:55;4.13;88.63
72320;SHT30;60269;52.502;16.732;2023-04-01T22:09:09;3.89;89.13
72320;SHT30;60269;52.502;16.732;2023-04-01T22:16:32;3.93;89.19
72320;SHT30;60269;52.502;16.732;2023-04-01T22:20:21;3.86;88.55
72320;SHT30;60269;52.502;16.732;2023-04-01T22:24:03;3.79;88.00
72320;SHT30;60269;52.502;16.732;2023-04-01T22:27:47;3.81;87.93
72320;SHT30;60269;52.502;16.732;2023-04-01T22:31:28;3.74;87.66
72320;SHT30;60269;52.502;16.732;2023-04-01T22:38:57;3.83;87.92
72320;SHT30;60269;52.502;16.732;2023-04-01T22:42:45;3.77;88.19
72320;SHT30;60269;52.502;16.732;2023-04-01T22:46:28;3.74;88.25
72320;SHT30;60269;52.502;16.732;2023-04-01T22:54:02;3.79;87.85
72320;SHT30;60269;52.502;16.732;2023-04-01T22:57:51;3.77;87.57
72320;SHT30;60269;52.502;16.732;2023-04-01T23:01:28;3.68;87.59
72320;SHT30;60269;52.502;16.732;2023-04-01T23:05:04;3.72;87.93
72320;SHT30;60269;52.502;16.732;2023-04-01T23:12:58;3.67;87.37
72320;SHT30;60269;52.502;16.732;2023-04-01T23:17:08;3.65;87.73
72320;SHT30;60269;52.502;16.732;2023-04-01T23:24:33;3.61;87.92
72320;SHT30;60269;52.502;16.732;2023-04-01T23:28:37;3.65;87.53
72320;SHT30;60269;52.502;16.732;2023-04-01T23:32:32;3.54;86.62
72320;SHT30;60269;52.502;16.732;2023-04-01T23:36:13;3.47;86.99
72320;SHT30;60269;52.502;16.732;2023-04-01T23:39:47;3.48;86.77
72320;SHT30;60269;52.502;16.732;2023-04-01T23:43:26;3.44;86.85
72320;SHT30;60269;52.502;16.732;2023-04-01T23:47:00;3.45;87.24
72320;SHT30;60269;52.502;16.732;2023-04-01T23:50:34;3.51;87.14
72320;SHT30;60269;52.502;16.732;2023-04-01T23:54:38;3.54;86.68
72320;SHT30;60269;52.502;16.732;2023-04-01T23:58:27;3.44;86.98
